sensor_id;sensor_type;location;lat;lon;timestamp;P1;durP1;ratioP1;P2;durP2;ratioP2
19593;SDS011;9944;48.240;16.478;2023-11-21T00:02:13;1.80;;;1.08;;
19593;SDS011;9944;48.240;16.478;2023-11-21T00:06:16;0.80;;;0.77;;
19593;SDS011;9944;48.240;16.478;2023-11-21T00:10:20;1.70;;;1.10;;
19593;SDS011;9944;48.240;16.478;2023-11-21T00:14:23;1.30;;;0.98;;
19593;SDS011;9944;48.240;16.478;2023-11-21T00:18:27;1.90;;;1.13;;
19593;SDS011;9944;48.240;16.478;2023-11-21T00:22:30;3.55;;;1.30;;
19593;SDS011;9944;48.240;16.478;2023-11-21T00:26:34;0.55;;;0.55;;
19593;SDS011;9944;48.240;16.478;2023-11-21T00:30:39;4.40;;;0.98;;
19593;SDS011;9944;48.240;16.478;2023-11-21T00:34:43;1.42;;;0.80;;
19593;SDS011;9944;48.240;16.478;2023-11-21T00:38:46;1.25;;;0.80;;
19593;SDS011;9944;48.240;16.478;2023-11-21T00:42:50;1.88;;;0.70;;
19593;SDS011;9944;48.240;16.478;2023-11-21T00:46:53;1.20;;;0.77;;
19593;SDS011;9944;48.240;16.478;2023-11-21T00:50:58;1.52;;;1.10;;
19593;SDS011;9944;48.240;16.478;2023-11-21T00:55:02;1.15;;;0.90;;
19593;SDS011;9944;48.240;16.478;2023-11-21T00:59:05;3.58;;;1.10;;
19593;SDS011;9944;48.240;16.478;2023-11-21T01:03:08;2.05;;;0.90;;
19593;SDS011;9944;48.240;16.478;2023-11-21T01:07:13;1.85;;;0.90;;
19593;SDS011;9944;48.240;16.478;2023-11-21T01:11:16;1.85;;;0.90;;
19593;SDS011;9944;48.240;16.478;2023-11-21T01:15:19;1.60;;;1.00;;
19593;SDS011;9944;48.240;16.478;2023-11-21T01:19:22;4.22;;;1.25;;
19593;SDS011;9944;48.240;16.478;2023-11-21T01:23:27;2.28;;;1.00;;
19593;SDS011;9944;48.240;16.478;2023-11-21T01:27:30;4.78;;;1.48;;
19593;SDS011;9944;48.240;16.478;2023-11-21T01:31:34;2.38;;;1.40;;
19593;SDS011;9944;48.240;16.478;2023-11-21T01:35:37;3.38;;;1.65;;
19593;SDS011;9944;48.240;16.478;2023-11-21T01:39:42;3.28;;;1.63;;
19593;SDS011;9944;48.240;16.478;2023-11-21T01:43:45;5.10;;;2.20;;
19593;SDS011;9944;48.240;16.478;2023-11-21T01:47:49;3.30;;;2.03;;
19593;SDS011;9944;48.240;16.478;2023-11-21T01:51:54;2.55;;;1.40;;
19593;SDS011;9944;48.240;16.478;2023-11-21T01:55:59;2.17;;;1.63;;
19593;SDS011;9944;48.240;16.478;2023-11-21T02:00:03;1.52;;;0.95;;
19593;SDS011;9944;48.240;16.478;2023-11-21T02:04:17;1.35;;;1.00;;
19593;SDS011;9944;48.240;16.478;2023-11-21T02:08:21;2.05;;;1.35;;
19593;SDS011;9944;48.240;16.478;2023-11-21T02:12:25;4.57;;;1.63;;
19593;SDS011;9944;48.240;16.478;2023-11-21T02:16:29;1.85;;;1.30;;
19593;SDS011;9944;48.240;16.478;2023-11-21T02:20:33;3.00;;;1.27;;
19593;SDS011;9944;48.240;16.478;2023-11-21T02:24:40;2.05;;;1.40;;
19593;SDS011;9944;48.240;16.478;2023-11-21T02:28:44;3.58;;;1.67;;
19593;SDS011;9944;48.240;16.478;2023-11-21T02:32:48;3.17;;;1.30;;
19593;SDS011;9944;48.240;16.478;2023-11-21T02:36:51;3.55;;;1.40;;
19593;SDS011;9944;48.240;16.478;2023-11-21T02:40:57;2.58;;;1.25;;
19593;SDS011;9944;48.240;16.478;2023-11-21T02:45:01;2.47;;;1.25;;
19593;SDS011;9944;48.240;16.478;2023-11-21T02:49:05;3.20;;;1.27;;
19593;SDS011;9944;48.240;16.478;2023-11-21T02:53:09;3.35;;;1.52;;
19593;SDS011;9944;48.240;16.478;2023-11-21T02:57:13;3.03;;;1.35;;
19593;SDS011;9944;48.240;16.478;2023-11-21T03:01:17;1.92;;;1.20;;
19593;SDS011;9944;48.240;16.478;2023-11-21T03:05:20;1.83;;;1.13;;
19593;SDS011;9944;48.240;16.478;2023-11-21T03:09:24;3.80;;;0.93;;
19593;SDS011;9944;48.240;16.478;2023-11-21T03:13:29;1.73;;;0.90;;
19593;SDS011;9944;48.240;16.478;2023-11-21T03:17:33;2.35;;;1.23;;
19593;SDS011;9944;48.240;16.478;2023-11-21T03:21:37;1.42;;;1.20;;
19593;SDS011;9944;48.240;16.478;2023-11-21T03:25:40;2.03;;;1.08;;
19593;SDS011;9944;48.240;16.478;2023-11-21T03:29:45;1.67;;;1.15;;
19593;SDS011;9944;48.240;16.478;2023-11-21T03:33:51;1.48;;;1.10;;
19593;SDS011;9944;48.240;16.478;2023-11-21T03:37:55;2.80;;;1.30;;
19593;SDS011;9944;48.240;16.478;2023-11-21T03:41:58;3.47;;;1.55;;
19593;SDS011;9944;48.240;16.478;2023-11-21T03:46:03;4.57;;;1.55;;
19593;SDS011;9944;48.240;16.478;2023-11-21T03:50:07;4.70;;;1.58;;
19593;SDS011;9944;48.240;16.478;2023-11-21T03:54:11;2.28;;;1.40;;
19593;SDS011;9944;48.240;16.478;2023-11-21T03:58:16;2.33;;;1.23;;
19593;SDS011;9944;48.240;16.478;2023-11-21T04:02:21;5.03;;;1.48;;
19593;SDS011;9944;48.240;16.478;2023-11-21T04:06:24;2.92;;;1.70;;
19593;SDS011;9944;48.240;16.478;2023-11-21T04:10:27;3.53;;;1.42;;
19593;SDS011;9944;48.240;16.478;2023-11-21T04:14:32;4.13;;;1.40;;
19593;SDS011;9944;48.240;16.478;2023-11-21T04:18:37;3.55;;;1.48;;
19593;SDS011;9944;48.240;16.478;2023-11-21T04:22:41;1.85;;;1.50;;
19593;SDS011;9944;48.240;16.478;2023-11-21T04:26:46;3.67;;;1.30;;
19593;SDS011;9944;48.240;16.478;2023-11-21T04:30:50;1.60;;;1.17;;
19593;SDS011;9944;48.240;16.478;2023-11-21T04:34:54;1.90;;;1.20;;
19593;SDS011;9944;48.240;16.478;2023-11-21T04:38:58;4.40;;;1.30;;
19593;SDS011;9944;48.240;16.478;2023-11-21T04:43:01;2.58;;;1.35;;
19593;SDS011;9944;48.240;16.478;2023-11-21T04:47:06;2.55;;;1.30;;
19593;SDS011;9944;48.240;16.478;2023-11-21T04:51:11;1.63;;;1.25;;
19593;SDS011;9944;48.240;16.478;2023-11-21T04:55:14;2.97;;;1.50;;
19593;SDS011;9944;48.240;16.478;2023-11-21T04:59:18;2.63;;;1.40;;
19593;SDS011;9944;48.240;16.478;2023-11-21T05:03:21;3.22;;;1.63;;
19593;SDS011;9944;48.240;16.478;2023-11-21T05:07:27;1.88;;;1.35;;
19593;SDS011;9944;48.240;16.478;2023-11-21T05:11:33;3.83;;;1.38;;
19593;SDS011;9944;48.240;16.478;2023-11-21T05:15:36;2.58;;;1.30;;
19593;SDS011;9944;48.240;16.478;2023-11-21T05:19:40;1.85;;;1.20;;
19593;SDS011;9944;48.240;16.478;2023-11-21T05:23:44;4.03;;;1.50;;
19593;SDS011;9944;48.240;16.478;2023-11-21T05:27:48;4.18;;;1.33;;
19593;SDS011;9944;48.240;16.478;2023-11-21T05:31:51;3.50;;;1.60;;
19593;SDS011;9944;48.240;16.478;2023-11-21T05:35:55;3.95;;;1.80;;
19593;SDS011;9944;48.240;16.478;2023-11-21T05:39:59;2.97;;;1.63;;
19593;SDS011;9944;48.240;16.478;2023-11-21T05:44:07;3.13;;;1.50;;
19593;SDS011;9944;48.240;16.478;2023-11-21T05:48:11;1.55;;;1.40;;
19593;SDS011;9944;48.240;16.478;2023-11-21T05:52:14;3.45;;;1.48;;
19593;SDS011;9944;48.240;16.478;2023-11-21T05:56:19;4.60;;;1.95;;
19593;SDS011;9944;48.240;16.478;2023-11-21T06:00:22;3.10;;;1.88;;
19593;SDS011;9944;48.240;16.478;2023-11-21T06:04:26;5.57;;;2.00;;
19593;SDS011;9944;48.240;16.478;2023-11-21T06:08:30;2.55;;;1.70;;
19593;SDS011;9944;48.240;16.478;2023-11-21T06:12:34;2.67;;;1.48;;
19593;SDS011;9944;48.240;16.478;2023-11-21T06:16:37;2.88;;;1.38;;
19593;SDS011;9944;48.240;16.478;2023-11-21T06:20:41;3.05;;;1.60;;
19593;SDS011;9944;48.240;16.478;2023-11-21T06:24:45;3.75;;;2.03;;
19593;SDS011;9944;48.240;16.478;2023-11-21T06:28:49;2.92;;;1.70;;
19593;SDS011;9944;48.240;16.478;2023-11-21T06:32:54;2.95;;;1.33;;
19593;SDS011;9944;48.240;16.478;2023-11-21T06:36:57;3.47;;;1.60;;
19593;SDS011;9944;48.240;16.478;2023-11-21T06:41:01;2.55;;;1.55;;
19593;SDS011;9944;48.240;16.478;2023-11-21T06:45:08;4.65;;;2.22;;
19593;SDS011;9944;48.240;16.478;2023-11-21T06:49:13;3.08;;;1.90;;
19593;SDS011;9944;48.240;16.478;2023-11-21T06:53:17;4.93;;;2.03;;
19593;SDS011;9944;48.240;16.478;2023-11-21T06:57:22;3.22;;;2.03;;
19593;SDS011;9944;48.240;16.478;2023-11-21T07:01:27;4.22;;;2.20;;
19593;SDS011;9944;48.240;16.478;2023-11-21T07:05:30;2.20;;;1.80;;
19593;SDS011;9944;48.240;16.478;2023-11-21T07:09:33;5.57;;;2.50;;
19593;SDS011;9944;48.240;16.478;2023-11-21T07:13:37;5.43;;;2.35;;
19593;SDS011;9944;48.240;16.478;2023-11-21T07:17:41;4.20;;;2.15;;
19593;SDS011;9944;48.240;16.478;2023-11-21T07:22:26;3.50;;;2.05;;
19593;SDS011;9944;48.240;16.478;2023-11-21T07:26:29;6.55;;;3.05;;
19593;SDS011;9944;48.240;16.478;2023-11-21T07:30:32;3.28;;;2.20;;
19593;SDS011;9944;48.240;16.478;2023-11-21T07:34:37;2.70;;;1.70;;
19593;SDS011;9944;48.240;16.478;2023-11-21T07:38:41;13.52;;;2.92;;
19593;SDS011;9944;48.240;16.478;2023-11-21T07:42:45;7.40;;;3.03;;
19593;SDS011;9944;48.240;16.478;2023-11-21T07:46:50;7.18;;;2.90;;
19593;SDS011;9944;48.240;16.478;2023-11-21T07:50:56;5.63;;;2.50;;
19593;SDS011;9944;48.240;16.478;2023-11-21T07:54:59;5.07;;;2.72;;
19593;SDS011;9944;48.240;16.478;2023-11-21T07:59:03;6.57;;;2.90;;
19593;SDS011;9944;48.240;16.478;2023-11-21T08:03:07;5.78;;;2.58;;
19593;SDS011;9944;48.240;16.478;2023-11-21T08:07:12;8.27;;;2.50;;
19593;SDS011;9944;48.240;16.478;2023-11-21T08:11:15;4.78;;;2.55;;
19593;SDS011;9944;48.240;16.478;2023-11-21T08:15:20;6.28;;;3.50;;
19593;SDS011;9944;48.240;16.478;2023-11-21T08:19:23;6.78;;;2.85;;
19593;SDS011;9944;48.240;16.478;2023-11-21T08:23:29;10.73;;;4.43;;
19593;SDS011;9944;48.240;16.478;2023-11-21T08:27:32;8.15;;;4.05;;
19593;SDS011;9944;48.240;16.478;2023-11-21T08:31:35;9.45;;;3.90;;
19593;SDS011;9944;48.240;16.478;2023-11-21T08:35:39;8.48;;;3.70;;
19593;SDS011;9944;48.240;16.478;2023-11-21T08:39:44;8.05;;;4.43;;
19593;SDS011;9944;48.240;16.478;2023-11-21T08:43:47;9.35;;;4.55;;
19593;SDS011;9944;48.240;16.478;2023-11-21T08:47:51;7.65;;;3.10;;
19593;SDS011;9944;48.240;16.478;2023-11-21T08:51:55;5.85;;;2.70;;
19593;SDS011;9944;48.240;16.478;2023-11-21T08:56:02;4.13;;;2.42;;
19593;SDS011;9944;48.240;16.478;2023-11-21T09:00:06;4.93;;;2.65;;
19593;SDS011;9944;48.240;16.478;2023-11-21T09:04:13;7.85;;;3.10;;
19593;SDS011;9944;48.240;16.478;2023-11-21T09:08:17;6.55;;;2.95;;
19593;SDS011;9944;48.240;16.478;2023-11-21T09:12:21;5.10;;;2.80;;
19593;SDS011;9944;48.240;16.478;2023-11-21T09:16:26;6.50;;;2.60;;
19593;SDS011;9944;48.240;16.478;2023-11-21T09:20:29;8.57;;;3.00;;
19593;SDS011;9944;48.240;16.478;2023-11-21T09:24:33;4.47;;;2.72;;
19593;SDS011;9944;48.240;16.478;2023-11-21T09:28:40;3.72;;;2.60;;
19593;SDS011;9944;48.240;16.478;2023-11-21T09:32:47;4.80;;;2.60;;
19593;SDS011;9944;48.240;16.478;2023-11-21T09:36:52;4.60;;;2.35;;
19593;SDS011;9944;48.240;16.478;2023-11-21T09:40:55;4.30;;;2.25;;
19593;SDS011;9944;48.240;16.478;2023-11-21T09:45:03;6.97;;;2.38;;
19593;SDS011;9944;48.240;16.478;2023-11-21T09:49:09;5.45;;;2.28;;
19593;SDS011;9944;48.240;16.478;2023-11-21T09:53:16;5.00;;;2.10;;
19593;SDS011;9944;48.240;16.478;2023-11-21T09:57:23;5.00;;;2.35;;
19593;SDS011;9944;48.240;16.478;2023-11-21T10:01:28;6.10;;;3.30;;
19593;SDS011;9944;48.240;16.478;2023-11-21T10:05:31;8.90;;;3.10;;
19593;SDS011;9944;48.240;16.478;2023-11-21T10:09:36;6.15;;;2.35;;
19593;SDS011;9944;48.240;16.478;2023-11-21T10:13:40;3.10;;;2.45;;
19593;SDS011;9944;48.240;16.478;2023-11-21T10:17:45;4.85;;;2.63;;
19593;SDS011;9944;48.240;16.478;2023-11-21T10:21:51;4.28;;;2.50;;
19593;SDS011;9944;48.240;16.478;2023-11-21T10:25:56;3.65;;;1.30;;
19593;SDS011;9944;48.240;16.478;2023-11-21T10:30:11;3.95;;;1.80;;
19593;SDS011;9944;48.240;16.478;2023-11-21T10:34:17;5.70;;;1.67;;
19593;SDS011;9944;48.240;16.478;2023-11-21T10:38:21;5.63;;;1.13;;
19593;SDS011;9944;48.240;16.478;2023-11-21T10:42:26;1.52;;;0.85;;
19593;SDS011;9944;48.240;16.478;2023-11-21T10:46:29;0.90;;;0.85;;
19593;SDS011;9944;48.240;16.478;2023-11-21T10:50:35;2.95;;;1.20;;
19593;SDS011;9944;48.240;16.478;2023-11-21T10:54:38;1.45;;;1.00;;
19593;SDS011;9944;48.240;16.478;2023-11-21T10:58:42;3.33;;;1.10;;
19593;SDS011;9944;48.240;16.478;2023-11-21T11:02:46;1.67;;;0.88;;
19593;SDS011;9944;48.240;16.478;2023-11-21T11:06:54;1.75;;;0.90;;
19593;SDS011;9944;48.240;16.478;2023-11-21T11:10:59;0.80;;;0.80;;
19593;SDS011;9944;48.240;16.478;2023-11-21T11:15:03;2.20;;;0.77;;
19593;SDS011;9944;48.240;16.478;2023-11-21T11:19:07;1.88;;;0.80;;
19593;SDS011;9944;48.240;16.478;2023-11-21T11:23:17;2.15;;;0.80;;
19593;SDS011;9944;48.240;16.478;2023-11-21T11:27:37;2.25;;;0.98;;
19593;SDS011;9944;48.240;16.478;2023-11-21T11:31:52;2.65;;;1.00;;
19593;SDS011;9944;48.240;16.478;2023-11-21T11:36:06;2.50;;;0.90;;
19593;SDS011;9944;48.240;16.478;2023-11-21T11:40:19;0.75;;;0.60;;
19593;SDS011;9944;48.240;16.478;2023-11-21T11:49:02;1.35;;;0.88;;
19593;SDS011;9944;48.240;16.478;2023-11-21T11:53:12;1.10;;;0.65;;
19593;SDS011;9944;48.240;16.478;2023-11-21T11:57:19;1.60;;;0.82;;
19593;SDS011;9944;48.240;16.478;2023-11-21T12:01:26;1.42;;;0.85;;
19593;SDS011;9944;48.240;16.478;2023-11-21T12:05:31;3.83;;;1.10;;
19593;SDS011;9944;48.240;16.478;2023-11-21T12:09:37;2.88;;;1.05;;
19593;SDS011;9944;48.240;16.478;2023-11-21T12:13:42;2.25;;;1.00;;
19593;SDS011;9944;48.240;16.478;2023-11-21T12:17:46;1.20;;;1.05;;
19593;SDS011;9944;48.240;16.478;2023-11-21T12:21:51;1.92;;;1.00;;
19593;SDS011;9944;48.240;16.478;2023-11-21T12:25:54;3.17;;;1.00;;
19593;SDS011;9944;48.240;16.478;2023-11-21T12:29:58;1.25;;;0.85;;
19593;SDS011;9944;48.240;16.478;2023-11-21T12:34:02;0.73;;;0.70;;
19593;SDS011;9944;48.240;16.478;2023-11-21T12:38:07;1.35;;;0.90;;
19593;SDS011;9944;48.240;16.478;2023-11-21T12:42:11;1.17;;;0.90;;
19593;SDS011;9944;48.240;16.478;2023-11-21T12:46:16;1.80;;;1.02;;
19593;SDS011;9944;48.240;16.478;2023-11-21T12:50:20;0.95;;;0.80;;
19593;SDS011;9944;48.240;16.478;2023-11-21T12:54:25;2.38;;;0.82;;
19593;SDS011;9944;48.240;16.478;2023-11-21T12:58:29;1.23;;;0.90;;
19593;SDS011;9944;48.240;16.478;2023-11-21T13:02:33;2.65;;;1.13;;
19593;SDS011;9944;48.240;16.478;2023-11-21T13:06:40;1.77;;;0.77;;
19593;SDS011;9944;48.240;16.478;2023-11-21T13:10:43;1.85;;;0.80;;
19593;SDS011;9944;48.240;16.478;2023-11-21T13:14:48;2.35;;;1.00;;
19593;SDS011;9944;48.240;16.478;2023-11-21T13:18:53;3.13;;;1.10;;
19593;SDS011;9944;48.240;16.478;2023-11-21T13:22:57;2.60;;;1.15;;
19593;SDS011;9944;48.240;16.478;2023-11-21T13:27:01;2.97;;;1.30;;
19593;SDS011;9944;48.240;16.478;2023-11-21T13:31:05;2.05;;;1.10;;
19593;SDS011;9944;48.240;16.478;2023-11-21T13:35:25;2.40;;;1.27;;
19593;SDS011;9944;48.240;16.478;2023-11-21T13:39:34;1.77;;;1.15;;
19593;SDS011;9944;48.240;16.478;2023-11-21T13:43:38;1.17;;;1.08;;
19593;SDS011;9944;48.240;16.478;2023-11-21T13:47:45;2.67;;;1.50;;
19593;SDS011;9944;48.240;16.478;2023-11-21T13:51:50;2.42;;;1.60;;
19593;SDS011;9944;48.240;16.478;2023-11-21T13:55:56;5.38;;;1.38;;
19593;SDS011;9944;48.240;16.478;2023-11-21T14:00:01;4.30;;;1.40;;
19593;SDS011;9944;48.240;16.478;2023-11-21T14:04:04;2.60;;;1.33;;
19593;SDS011;9944;48.240;16.478;2023-11-21T14:08:22;3.28;;;1.40;;
19593;SDS011;9944;48.240;16.478;2023-11-21T14:12:29;3.65;;;1.50;;
19593;SDS011;9944;48.240;16.478;2023-11-21T14:16:40;1.63;;;1.30;;
19593;SDS011;9944;48.240;16.478;2023-11-21T14:20:44;2.10;;;1.40;;
19593;SDS011;9944;48.240;16.478;2023-11-21T14:24:48;3.45;;;1.42;;
19593;SDS011;9944;48.240;16.478;2023-11-21T14:28:54;3.13;;;1.20;;
19593;SDS011;9944;48.240;16.478;2023-11-21T14:32:59;1.30;;;1.00;;
19593;SDS011;9944;48.240;16.478;2023-11-21T14:37:02;4.10;;;1.58;;
19593;SDS011;9944;48.240;16.478;2023-11-21T14:41:07;1.17;;;1.00;;
19593;SDS011;9944;48.240;16.478;2023-11-21T14:45:13;1.73;;;1.20;;
19593;SDS011;9944;48.240;16.478;2023-11-21T14:49:21;3.30;;;1.30;;
19593;SDS011;9944;48.240;16.478;2023-11-21T14:53:27;3.65;;;1.35;;
19593;SDS011;9944;48.240;16.478;2023-11-21T14:57:46;2.00;;;1.13;;
19593;SDS011;9944;48.240;16.478;2023-11-21T15:01:52;2.90;;;1.40;;
19593;SDS011;9944;48.240;16.478;2023-11-21T15:05:57;1.40;;;1.20;;
19593;SDS011;9944;48.240;16.478;2023-11-21T15:10:11;2.13;;;1.35;;
19593;SDS011;9944;48.240;16.478;2023-11-21T15:14:19;2.30;;;1.25;;
19593;SDS011;9944;48.240;16.478;2023-11-21T15:18:26;3.83;;;1.35;;
19593;SDS011;9944;48.240;16.478;2023-11-21T15:22:31;1.30;;;1.10;;
19593;SDS011;9944;48.240;16.478;2023-11-21T15:26:34;2.47;;;1.20;;
19593;SDS011;9944;48.240;16.478;2023-11-21T15:30:39;1.63;;;1.20;;
19593;SDS011;9944;48.240;16.478;2023-11-21T15:34:42;1.27;;;1.17;;
19593;SDS011;9944;48.240;16.478;2023-11-21T15:38:46;1.15;;;1.05;;
19593;SDS011;9944;48.240;16.478;2023-11-21T15:42:49;3.05;;;1.25;;
19593;SDS011;9944;48.240;16.478;2023-11-21T15:46:54;2.28;;;1.35;;
19593;SDS011;9944;48.240;16.478;2023-11-21T15:50:57;2.28;;;1.55;;
19593;SDS011;9944;48.240;16.478;2023-11-21T15:55:01;3.17;;;1.42;;
19593;SDS011;9944;48.240;16.478;2023-11-21T15:59:04;2.17;;;1.65;;
19593;SDS011;9944;48.240;16.478;2023-11-21T16:03:09;2.70;;;1.92;;
19593;SDS011;9944;48.240;16.478;2023-11-21T16:07:13;2.67;;;1.75;;
19593;SDS011;9944;48.240;16.478;2023-11-21T16:11:17;2.90;;;2.08;;
19593;SDS011;9944;48.240;16.478;2023-11-21T16:15:20;6.18;;;1.83;;
19593;SDS011;9944;48.240;16.478;2023-11-21T16:19:25;2.20;;;1.92;;
19593;SDS011;9944;48.240;16.478;2023-11-21T16:23:28;3.38;;;1.80;;
19593;SDS011;9944;48.240;16.478;2023-11-21T16:27:33;3.70;;;2.28;;
19593;SDS011;9944;48.240;16.478;2023-11-21T16:31:36;3.25;;;2.20;;
19593;SDS011;9944;48.240;16.478;2023-11-21T16:35:41;3.95;;;2.58;;
19593;SDS011;9944;48.240;16.478;2023-11-21T16:39:44;4.15;;;2.30;;
19593;SDS011;9944;48.240;16.478;2023-11-21T16:43:49;5.43;;;2.38;;
19593;SDS011;9944;48.240;16.478;2023-11-21T16:47:53;3.97;;;2.30;;
19593;SDS011;9944;48.240;16.478;2023-11-21T16:51:57;2.70;;;2.30;;
19593;SDS011;9944;48.240;16.478;2023-11-21T16:56:02;4.32;;;2.40;;
19593;SDS011;9944;48.240;16.478;2023-11-21T17:00:05;2.47;;;2.00;;
19593;SDS011;9944;48.240;16.478;2023-11-21T17:04:13;3.88;;;2.42;;
19593;SDS011;9944;48.240;16.478;2023-11-21T17:08:18;2.80;;;1.85;;
19593;SDS011;9944;48.240;16.478;2023-11-21T17:12:21;4.28;;;2.17;;
19593;SDS011;9944;48.240;16.478;2023-11-21T17:16:25;3.58;;;2.50;;
19593;SDS011;9944;48.240;16.478;2023-11-21T17:20:28;2.42;;;2.22;;
19593;SDS011;9944;48.240;16.478;2023-11-21T17:24:33;4.15;;;2.30;;
19593;SDS011;9944;48.240;16.478;2023-11-21T17:28:37;4.18;;;2.15;;
19593;SDS011;9944;48.240;16.478;2023-11-21T17:32:41;4.22;;;2.33;;
19593;SDS011;9944;48.240;16.478;2023-11-21T17:36:45;3.00;;;2.13;;
19593;SDS011;9944;48.240;16.478;2023-11-21T17:40:51;2.78;;;2.30;;
19593;SDS011;9944;48.240;16.478;2023-11-21T17:44:54;3.78;;;2.28;;
19593;SDS011;9944;48.240;16.478;2023-11-21T17:48:58;4.93;;;2.63;;
19593;SDS011;9944;48.240;16.478;2023-11-21T17:53:01;3.42;;;2.05;;
19593;SDS011;9944;48.240;16.478;2023-11-21T17:57:07;3.22;;;2.08;;
19593;SDS011;9944;48.240;16.478;2023-11-21T18:01:10;4.18;;;2.00;;
19593;SDS011;9944;48.240;16.478;2023-11-21T18:05:15;3.25;;;2.28;;
19593;SDS011;9944;48.240;16.478;2023-11-21T18:09:19;4.70;;;2.15;;
19593;SDS011;9944;48.240;16.478;2023-11-21T18:13:24;3.85;;;2.45;;
19593;SDS011;9944;48.240;16.478;2023-11-21T18:17:27;3.22;;;2.15;;
19593;SDS011;9944;48.240;16.478;2023-11-21T18:21:30;3.75;;;2.25;;
19593;SDS011;9944;48.240;16.478;2023-11-21T18:25:33;3.67;;;1.92;;
19593;SDS011;9944;48.240;16.478;2023-11-21T18:29:38;3.97;;;2.42;;
19593;SDS011;9944;48.240;16.478;2023-11-21T18:33:41;3.00;;;1.92;;
19593;SDS011;9944;48.240;16.478;2023-11-21T18:37:45;2.20;;;2.00;;
19593;SDS011;9944;48.240;16.478;2023-11-21T18:41:49;4.70;;;1.80;;
19593;SDS011;9944;48.240;16.478;2023-11-21T18:45:55;3.78;;;1.70;;
19593;SDS011;9944;48.240;16.478;2023-11-21T18:49:58;4.60;;;1.83;;
19593;SDS011;9944;48.240;16.478;2023-11-21T18:54:01;2.55;;;2.00;;
19593;SDS011;9944;48.240;16.478;2023-11-21T18:58:04;2.55;;;1.98;;
19593;SDS011;9944;48.240;16.478;2023-11-21T19:02:09;3.65;;;1.50;;
19593;SDS011;9944;48.240;16.478;2023-11-21T19:06:15;3.10;;;1.83;;
19593;SDS011;9944;48.240;16.478;2023-11-21T19:10:18;2.72;;;1.95;;
19593;SDS011;9944;48.240;16.478;2023-11-21T19:14:22;3.15;;;2.17;;
19593;SDS011;9944;48.240;16.478;2023-11-21T19:18:27;2.80;;;1.90;;
19593;SDS011;9944;48.240;16.478;2023-11-21T19:22:30;2.85;;;2.00;;
19593;SDS011;9944;48.240;16.478;2023-11-21T19:26:36;2.78;;;1.80;;
19593;SDS011;9944;48.240;16.478;2023-11-21T19:30:39;2.38;;;1.52;;
19593;SDS011;9944;48.240;16.478;2023-11-21T19:34:45;2.42;;;1.50;;
19593;SDS011;9944;48.240;16.478;2023-11-21T19:38:48;2.25;;;1.70;;
19593;SDS011;9944;48.240;16.478;2023-11-21T19:42:52;2.60;;;1.90;;
19593;SDS011;9944;48.240;16.478;2023-11-21T19:46:55;2.10;;;1.80;;
19593;SDS011;9944;48.240;16.478;2023-11-21T19:51:00;3.80;;;1.90;;
19593;SDS011;9944;48.240;16.478;2023-11-21T19:55:06;2.25;;;2.00;;
19593;SDS011;9944;48.240;16.478;2023-11-21T19:59:10;2.03;;;1.70;;
19593;SDS011;9944;48.240;16.478;2023-11-21T20:03:15;2.20;;;1.67;;
19593;SDS011;9944;48.240;16.478;2023-11-21T20:07:22;2.45;;;1.95;;
19593;SDS011;9944;48.240;16.478;2023-11-21T20:11:27;3.65;;;1.88;;
19593;SDS011;9944;48.240;16.478;2023-11-21T20:15:33;3.53;;;2.08;;
19593;SDS011;9944;48.240;16.478;2023-11-21T20:19:36;3.10;;;2.20;;
19593;SDS011;9944;48.240;16.478;2023-11-21T20:23:41;3.95;;;2.20;;
19593;SDS011;9944;48.240;16.478;2023-11-21T20:27:45;2.72;;;2.05;;
19593;SDS011;9944;48.240;16.478;2023-11-21T20:31:49;4.88;;;2.25;;
19593;SDS011;9944;48.240;16.478;2023-11-21T20:35:52;2.25;;;2.05;;
19593;SDS011;9944;48.240;16.478;2023-11-21T20:39:58;3.17;;;2.13;;
19593;SDS011;9944;48.240;16.478;2023-11-21T20:44:02;3.17;;;2.30;;
19593;SDS011;9944;48.240;16.478;2023-11-21T20:48:07;3.50;;;2.35;;
19593;SDS011;9944;48.240;16.478;2023-11-21T20:52:11;3.17;;;2.38;;
19593;SDS011;9944;48.240;16.478;2023-11-21T20:56:16;3.25;;;2.50;;
19593;SDS011;9944;48.240;16.478;2023-11-21T21:00:20;3.80;;;2.50;;
19593;SDS011;9944;48.240;16.478;2023-11-21T21:04:24;3.58;;;2.42;;
19593;SDS011;9944;48.240;16.478;2023-11-21T21:08:27;2.72;;;2.20;;
19593;SDS011;9944;48.240;16.478;2023-11-21T21:12:32;3.50;;;2.33;;
19593;SDS011;9944;48.240;16.478;2023-11-21T21:16:38;3.17;;;2.40;;
19593;SDS011;9944;48.240;16.478;2023-11-21T21:20:43;3.63;;;2.35;;
19593;SDS011;9944;48.240;16.478;2023-11-21T21:24:47;2.67;;;2.30;;
19593;SDS011;9944;48.240;16.478;2023-11-21T21:28:52;5.20;;;2.63;;
19593;SDS011;9944;48.240;16.478;2023-11-21T21:32:55;3.83;;;2.90;;
19593;SDS011;9944;48.240;16.478;2023-11-21T21:37:02;2.90;;;2.22;;
19593;SDS011;9944;48.240;16.478;2023-11-21T21:41:06;3.75;;;2.80;;
19593;SDS011;9944;48.240;16.478;2023-11-21T21:45:13;4.00;;;2.55;;
19593;SDS011;9944;48.240;16.478;2023-11-21T21:49:16;3.50;;;2.63;;
19593;SDS011;9944;48.240;16.478;2023-11-21T21:53:20;4.25;;;3.08;;
19593;SDS011;9944;48.240;16.478;2023-11-21T21:57:23;4.32;;;2.60;;
19593;SDS011;9944;48.240;16.478;2023-11-21T22:01:29;3.38;;;2.67;;
19593;SDS011;9944;48.240;16.478;2023-11-21T22:05:34;5.13;;;3.03;;
19593;SDS011;9944;48.240;16.478;2023-11-21T22:09:38;3.92;;;2.92;;
19593;SDS011;9944;48.240;16.478;2023-11-21T22:13:41;4.65;;;2.53;;
19593;SDS011;9944;48.240;16.478;2023-11-21T22:17:46;6.32;;;2.97;;
19593;SDS011;9944;48.240;16.478;2023-11-21T22:21:51;7.18;;;2.80;;
19593;SDS011;9944;48.240;16.478;2023-11-21T22:25:55;3.30;;;2.53;;
19593;SDS011;9944;48.240;16.478;2023-11-21T22:29:58;4.35;;;2.65;;
19593;SDS011;9944;48.240;16.478;2023-11-21T22:34:03;3.92;;;2.60;;
19593;SDS011;9944;48.240;16.478;2023-11-21T22:38:06;4.55;;;2.70;;
19593;SDS011;9944;48.240;16.478;2023-11-21T22:42:16;3.30;;;2.80;;
19593;SDS011;9944;48.240;16.478;2023-11-21T22:46:19;5.63;;;2.53;;
19593;SDS011;9944;48.240;16.478;2023-11-21T22:50:24;3.83;;;2.70;;
19593;SDS011;9944;48.240;16.478;2023-11-21T22:54:27;4.18;;;2.83;;
19593;SDS011;9944;48.240;16.478;2023-11-21T22:58:31;4.05;;;2.90;;
19593;SDS011;9944;48.240;16.478;2023-11-21T23:02:34;5.20;;;2.88;;
19593;SDS011;9944;48.240;16.478;2023-11-21T23:06:39;6.30;;;3.15;;
19593;SDS011;9944;48.240;16.478;2023-11-21T23:10:42;3.90;;;2.78;;
19593;SDS011;9944;48.240;16.478;2023-11-21T23:14:46;5.38;;;3.13;;
19593;SDS011;9944;48.240;16.478;2023-11-21T23:18:49;3.55;;;2.67;;
19593;SDS011;9944;48.240;16.478;2023-11-21T23:22:56;4.43;;;3.40;;
19593;SDS011;9944;48.240;16.478;2023-11-21T23:26:59;5.13;;;3.42;;
19593;SDS011;9944;48.240;16.478;2023-11-21T23:31:02;4.82;;;3.17;;
19593;SDS011;9944;48.240;16.478;2023-11-21T23:35:06;3.65;;;3.05;;
19593;SDS011;9944;48.240;16.478;2023-11-21T23:39:14;4.63;;;3.13;;
19593;SDS011;9944;48.240;16.478;2023-11-21T23:43:18;4.47;;;3.17;;
19593;SDS011;9944;48.240;16.478;2023-11-21T23:47:22;4.22;;;2.92;;
19593;SDS011;9944;48.240;16.478;2023-11-21T23:51:25;3.83;;;2.80;;
19593;SDS011;9944;48.240;16.478;2023-11-21T23:55:30;7.00;;;3.95;;
19593;SDS011;9944;48.240;16.478;2023-11-21T23:59:33;5.22;;;3.80;;
